Time;durP1;ratioP1;P1;durP2;ratioP2;P2;SDS_P1;SDS_P2;PMS_P1;PMS_P2;Temp;Humidity;BMP_temperature;BMP_pressure;BME280_temperature;BME280_humidity;BME280_pressure;Samples;Min_cycle;Max_cycle;Signal;HPM_P1;HPM_P2
2021/08/27 00:02:20;;;;;;;1.23;0.70;;;;;;;22.09;54.55;101948.25;4909287;29;20545;-74
2021/08/27 00:04:45;;;;;;;1.05;0.60;;;;;;;22.07;54.35;101944.78;4940953;29;20027;-74
2021/08/27 00:07:11;;;;;;;1.02;0.68;;;;;;;22.06;54.26;101949.19;4940916;29;20031;-74
2021/08/27 00:09:36;;;;;;;1.67;0.68;;;;;;;22.06;54.39;101948.28;4940738;29;20063;-74
2021/08/27 00:12:02;;;;;;;1.63;0.60;;;;;;;22.09;54.33;101956.16;4909163;29;20392;-74
2021/08/27 00:14:28;;;;;;;2.40;0.80;;;;;;;22.12;54.48;101957.94;4925099;29;20035;-73
2021/08/27 00:16:53;;;;;;;1.17;0.60;;;;;;;22.05;54.38;101949.19;4940673;29;20382;-74
2021/08/27 00:19:19;;;;;;;1.58;0.65;;;;;;;22.04;54.30;101947.41;4940581;29;20046;-73
2021/08/27 00:21:44;;;;;;;0.88;0.60;;;;;;;22.12;54.32;101961.44;4924830;29;20078;-75
2021/08/27 00:24:10;;;;;;;1.30;0.60;;;;;;;22.07;54.50;101955.31;4940624;29;20038;-74
2021/08/27 00:26:35;;;;;;;1.40;0.60;;;;;;;22.09;54.38;101957.03;4909073;29;20474;-74
2021/08/27 00:29:00;;;;;;;2.28;0.77;;;;;;;22.05;54.35;101951.81;4940820;29;20062;-73
2021/08/27 00:31:26;;;;;;;0.82;0.60;;;;;;;22.08;54.53;101951.78;4940488;29;20050;-73
2021/08/27 00:33:51;;;;;;;1.35;0.80;;;;;;;22.06;54.33;101946.53;4924444;29;20410;-74
2021/08/27 00:36:17;;;;;;;2.65;1.45;;;;;;;22.05;54.40;101941.28;4924486;29;20114;-73
2021/08/27 00:38:42;;;;;;;0.47;0.45;;;;;;;22.06;54.19;101945.66;4940203;29;20051;-73
2021/08/27 00:41:07;;;;;;;0.68;0.57;;;;;;;21.93;54.17;101926.34;4940537;29;20101;-73
2021/08/27 00:43:33;;;;;;;1.23;0.52;;;;;;;22.05;54.30;101943.91;4957342;29;20537;-73
2021/08/27 00:45:58;;;;;;;1.00;0.80;;;;;;;22.09;54.37;101951.78;4957491;29;20023;-73
2021/08/27 00:48:24;;;;;;;0.90;0.50;;;;;;;22.02;54.29;101931.63;4940056;29;20026;-74
2021/08/27 00:50:51;;;;;;;1.67;0.68;;;;;;;22.05;54.35;101939.50;4940071;29;20031;-74
2021/08/27 00:53:17;;;;;;;1.80;0.88;;;;;;;22.03;54.53;101935.13;4940104;29;20035;-74
2021/08/27 00:55:44;;;;;;;0.90;0.57;;;;;;;22.03;54.37;101936.00;4957149;29;20059;-74
2021/08/27 00:58:10;;;;;;;1.17;0.60;;;;;;;22.04;54.24;101935.13;4940098;29;20023;-74
2021/08/27 01:00:36;;;;;;;0.85;0.52;;;;;;;22.04;54.38;101936.88;4924842;29;20122;-74
2021/08/27 01:03:02;;;;;;;1.10;0.60;;;;;;;22.05;54.32;101941.28;4940217;29;20050;-74
2021/08/27 01:05:28;;;;;;;1.20;0.90;;;;;;;22.01;54.23;101934.25;4940142;29;20134;-74
2021/08/27 01:08:10;;;;;;;0.75;0.55;;;;;;;22.07;54.29;101940.38;4939822;29;20481;-73
2021/08/27 01:10:41;;;;;;;2.10;0.52;;;;;;;22.05;54.26;101941.28;4956667;28;20432;-72
2021/08/27 01:13:21;;;;;;;1.23;0.85;;;;;;;22.04;54.20;101943.03;4957003;29;20031;-76
2021/08/27 01:16:02;;;;;;;0.88;0.57;;;;;;;22.03;54.24;101936.00;4957313;29;20023;-80
2021/08/27 01:18:38;;;;;;;3.30;0.70;;;;;;;22.05;54.58;101938.63;4959482;29;20027;-75
2021/08/27 01:21:25;;;;;;;1.30;0.57;;;;;;;22.07;54.37;101944.78;4943027;29;20159;-74
2021/08/27 01:23:59;;;;;;;1.15;0.60;;;;;;;22.07;54.34;101943.00;4940802;29;20474;-77
2021/08/27 01:26:28;;;;;;;1.08;0.60;;;;;;;22.03;54.36;101932.50;4960161;29;20042;-85
2021/08/27 01:28:55;;;;;;;1.30;0.55;;;;;;;22.05;54.38;101939.50;4959670;29;20031;-74
2021/08/27 01:31:38;;;;;;;2.20;1.08;;;;;;;22.03;54.36;101924.59;4940418;29;20027;-74
2021/08/27 01:34:25;;;;;;;1.48;0.70;;;;;;;22.05;54.25;101939.50;4939638;29;20033;-73
2021/08/27 01:36:52;;;;;;;1.15;0.85;;;;;;;22.01;54.24;101929.84;4939247;29;20066;-74
2021/08/27 01:39:20;;;;;;;1.30;1.00;;;;;;;22.06;54.41;101937.75;4956301;29;20051;-73
2021/08/27 01:41:51;;;;;;;1.38;0.75;;;;;;;22.04;54.35;101936.88;4939279;29;20031;-74
2021/08/27 01:44:21;;;;;;;0.85;0.50;;;;;;;22.00;54.25;101935.13;4939540;29;20498;-74
2021/08/27 01:46:46;;;;;;;0.68;0.47;;;;;;;22.04;54.34;101936.88;4956310;29;20023;-73
2021/08/27 01:49:13;;;;;;;0.88;0.40;;;;;;;22.01;54.22;101937.75;4923263;29;20023;-72
2021/08/27 01:51:41;;;;;;;1.50;0.88;;;;;;;22.03;54.18;101935.13;4939077;29;20083;-74
2021/08/27 01:54:08;;;;;;;0.60;0.43;;;;;;;21.99;53.93;101926.34;4938929;29;20035;-74
2021/08/27 01:56:36;;;;;;;1.35;0.73;;;;;;;22.04;54.10;101936.88;4938849;29;20473;-74
2021/08/27 01:59:04;;;;;;;1.08;0.65;;;;;;;21.99;54.06;101934.25;4956253;29;20070;-73
2021/08/27 02:01:30;;;;;;;1.17;0.68;;;;;;;22.02;54.22;101944.78;4938843;29;20489;-73
2021/08/27 02:03:57;;;;;;;1.00;0.60;;;;;;;22.04;54.10;101950.06;4938743;29;20035;-73
2021/08/27 02:06:23;;;;;;;0.88;0.65;;;;;;;22.00;54.33;101945.66;4938882;29;20035;-73
2021/08/27 02:08:51;;;;;;;1.13;0.60;;;;;;;21.98;54.28;101942.13;4938865;29;20062;-72
2021/08/27 02:11:18;;;;;;;2.63;0.60;;;;;;;21.99;54.53;101952.69;4938846;29;20027;-74
2021/08/27 02:13:46;;;;;;;1.00;0.50;;;;;;;21.97;53.97;101946.50;4938829;29;20445;-73
2021/08/27 02:16:13;;;;;;;1.75;0.80;;;;;;;21.98;54.14;101942.13;4956029;29;20470;-74
2021/08/27 02:18:38;;;;;;;0.52;0.47;;;;;;;21.98;54.18;101947.38;4938957;29;20081;-74
2021/08/27 02:21:06;;;;;;;1.08;0.55;;;;;;;21.99;54.05;101947.41;4938629;29;20473;-72
2021/08/27 02:23:33;;;;;;;0.75;0.55;;;;;;;21.97;54.25;101940.34;4938032;29;20138;-74
2021/08/27 02:26:01;;;;;;;1.42;0.60;;;;;;;22.02;54.19;101950.06;4938490;29;20019;-74
2021/08/27 02:28:27;;;;;;;1.52;0.45;;;;;;;22.01;53.90;101943.03;4939158;29;20035;-74
2021/08/27 02:30:54;;;;;;;0.90;0.63;;;;;;;22.03;54.16;101948.28;4938588;29;20081;-73
2021/08/27 02:33:21;;;;;;;1.42;1.13;;;;;;;21.93;54.16;101936.88;4955876;29;20027;-73
2021/08/27 02:35:47;;;;;;;0.38;0.30;;;;;;;21.98;54.27;101947.38;4938601;29;20466;-73
2021/08/27 02:38:20;;;;;;;0.90;0.50;;;;;;;21.97;54.03;101948.25;4955643;29;20406;-75
2021/08/27 02:40:45;;;;;;;0.75;0.50;;;;;;;22.01;54.03;101950.06;4956022;29;20035;-72
2021/08/27 02:43:11;;;;;;;0.50;0.40;;;;;;;21.98;54.05;101947.38;4938561;29;20489;-73
2021/08/27 02:45:37;;;;;;;1.73;0.60;;;;;;;22.01;54.04;101953.56;4939361;29;20032;-74
2021/08/27 02:48:02;;;;;;;0.68;0.47;;;;;;;21.99;54.06;101955.31;4938966;29;20034;-73
2021/08/27 02:50:32;;;;;;;1.52;0.60;;;;;;;21.95;54.08;101948.25;4938396;29;20035;-74
2021/08/27 02:53:22;;;;;;;1.65;0.52;;;;;;;22.02;54.04;101960.59;4938489;29;20028;-73
2021/08/27 02:55:58;;;;;;;0.75;0.50;;;;;;;21.98;54.17;101950.03;4944783;29;20031;-75
2021/08/27 02:58:27;;;;;;;0.82;0.50;;;;;;;22.01;54.04;101955.31;4939036;29;20029;-75
2021/08/27 03:01:18;;;;;;;1.52;0.50;;;;;;;22.00;54.11;101954.44;4938697;29;20100;-75
2021/08/27 03:04:37;;;;;;;0.47;0.40;;;;;;;22.01;54.05;101965.84;4937994;29;20082;-74
2021/08/27 03:07:06;;;;;;;1.23;0.47;;;;;;;22.01;54.12;101957.94;4858974;29;20097;-74
2021/08/27 03:09:54;;;;;;;1.75;0.55;;;;;;;21.97;54.18;101950.91;4932129;29;20549;-73
2021/08/27 03:12:26;;;;;;;1.17;0.80;;;;;;;21.98;54.25;101952.66;4955439;29;20050;-74
2021/08/27 03:14:54;;;;;;;0.70;0.37;;;;;;;21.95;54.14;101952.66;4938395;29;20036;-72
2021/08/27 03:17:22;;;;;;;0.68;0.45;;;;;;;21.96;54.09;101952.66;4938249;29;20067;-73
2021/08/27 03:19:51;;;;;;;0.52;0.40;;;;;;;21.98;54.01;101960.56;4938174;29;20031;-74
2021/08/27 03:22:21;;;;;;;0.90;0.50;;;;;;;21.99;54.17;101954.44;4938242;29;20031;-74
2021/08/27 03:24:55;;;;;;;1.08;0.60;;;;;;;21.99;54.01;101963.22;4938215;29;20031;-74
2021/08/27 03:27:24;;;;;;;0.77;0.47;;;;;;;21.96;54.07;101959.66;4937988;29;20389;-73
2021/08/27 03:30:00;;;;;;;0.77;0.50;;;;;;;21.89;53.92;101952.69;4955220;29;20489;-73
2021/08/27 03:32:27;;;;;;;0.70;0.50;;;;;;;21.97;54.07;101964.94;4955094;29;20118;-74
2021/08/27 03:34:54;;;;;;;0.93;0.55;;;;;;;21.91;53.86;101948.28;4940201;29;20042;-74
2021/08/27 03:37:20;;;;;;;0.95;0.60;;;;;;;21.93;54.15;101960.59;4941552;29;20015;-75
2021/08/27 03:39:45;;;;;;;1.02;0.65;;;;;;;21.92;53.83;101947.41;4941924;29;20031;-75
2021/08/27 03:42:14;;;;;;;0.57;0.50;;;;;;;21.91;54.00;101950.91;4941452;29;20035;-75
2021/08/27 03:44:40;;;;;;;0.88;0.43;;;;;;;21.99;53.89;101971.13;4941105;29;20492;-74
2021/08/27 03:47:08;;;;;;;0.82;0.60;;;;;;;21.94;53.95;101959.66;4941228;29;20082;-74
2021/08/27 03:49:34;;;;;;;1.30;0.70;;;;;;;21.93;53.99;101959.69;4941580;29;20377;-74
2021/08/27 03:52:01;;;;;;;0.30;0.30;;;;;;;21.97;53.95;101970.22;4958336;29;20027;-73
2021/08/27 03:54:27;;;;;;;1.98;0.60;;;;;;;21.95;53.79;101961.44;4958236;29;20027;-73
2021/08/27 03:56:53;;;;;;;1.38;0.70;;;;;;;21.99;53.98;101970.25;4941278;29;20038;-73
2021/08/27 03:59:21;;;;;;;0.98;0.50;;;;;;;21.92;54.19;101963.22;4941090;29;20032;-74
2021/08/27 04:01:47;;;;;;;0.43;0.28;;;;;;;21.91;54.04;101966.72;4958176;29;20478;-73
2021/08/27 04:04:19;;;;;;;0.52;0.45;;;;;;;21.93;53.99;101967.59;4940997;29;20031;-73
2021/08/27 04:06:55;;;;;;;0.95;0.70;;;;;;;21.88;53.90;101962.34;4940780;29;20027;-73
2021/08/27 04:09:21;;;;;;;0.55;0.40;;;;;;;21.88;54.06;101956.19;4940770;29;20168;-74
2021/08/27 04:11:46;;;;;;;0.75;0.47;;;;;;;21.95;53.95;101968.44;4957986;29;20068;-73
2021/08/27 04:14:12;;;;;;;0.65;0.32;;;;;;;21.91;53.85;101966.72;4940726;29;20031;-73
2021/08/27 04:16:44;;;;;;;0.77;0.47;;;;;;;21.91;53.99;101964.97;4940783;29;20019;-74
2021/08/27 04:19:12;;;;;;;1.60;0.60;;;;;;;21.94;53.88;101964.09;4940639;29;20024;-73
2021/08/27 04:21:37;;;;;;;0.60;0.45;;;;;;;21.95;54.03;101968.44;4940796;29;20031;-73
2021/08/27 04:24:04;;;;;;;0.82;0.45;;;;;;;21.89;54.12;101952.69;4957758;29;20470;-72
2021/08/27 04:26:29;;;;;;;3.08;0.70;;;;;;;21.89;53.86;101955.31;4924746;29;20031;-73
2021/08/27 04:28:54;;;;;;;1.35;0.60;;;;;;;21.93;53.96;101959.69;4941133;29;20034;-74
2021/08/27 04:31:20;;;;;;;0.70;0.40;;;;;;;21.94;53.82;101970.22;4941839;29;20035;-79
2021/08/27 04:33:45;;;;;;;0.90;0.50;;;;;;;21.92;54.09;101957.94;4941594;29;20143;-73
2021/08/27 04:36:10;;;;;;;1.10;0.57;;;;;;;21.93;53.74;101957.06;4928257;29;20091;-78
2021/08/27 04:38:36;;;;;;;1.88;0.80;;;;;;;21.90;53.82;101963.22;4942042;29;20059;-75
2021/08/27 04:41:01;;;;;;;0.45;0.30;;;;;;;21.90;53.79;101957.94;4926629;29;20497;-74
2021/08/27 04:43:27;;;;;;;0.82;0.50;;;;;;;21.92;53.93;101971.13;4928191;29;20085;-75
2021/08/27 04:45:52;;;;;;;1.35;0.50;;;;;;;21.91;53.92;101964.97;4959404;28;20031;-75
2021/08/27 04:48:20;;;;;;;0.68;0.40;;;;;;;21.84;54.04;101949.16;4941026;29;20034;-74
2021/08/27 04:50:45;;;;;;;2.72;0.68;;;;;;;21.94;53.83;101972.00;4910118;29;20042;-74
2021/08/27 04:53:10;;;;;;;0.50;0.43;;;;;;;21.88;53.90;101959.69;4924628;29;20389;-73
2021/08/27 04:55:36;;;;;;;0.70;0.60;;;;;;;21.94;53.78;101972.00;4924592;29;20066;-75
2021/08/27 04:58:01;;;;;;;0.50;0.28;;;;;;;21.93;53.84;101972.88;4957551;29;20106;-74
2021/08/27 05:00:27;;;;;;;0.65;0.40;;;;;;;21.94;53.86;101972.00;4957639;29;20466;-74
2021/08/27 05:02:52;;;;;;;0.73;0.40;;;;;;;21.91;53.67;101970.25;4940694;29;20035;-73
2021/08/27 05:05:18;;;;;;;0.43;0.32;;;;;;;21.93;53.72;101976.38;4957200;29;20082;-74
2021/08/27 05:07:43;;;;;;;0.68;0.40;;;;;;;21.90;53.79;101973.75;4940151;29;20510;-72
2021/08/27 05:10:09;;;;;;;0.75;0.40;;;;;;;21.91;53.81;101972.00;4940073;29;20035;-74
2021/08/27 05:12:35;;;;;;;1.42;0.60;;;;;;;21.94;53.70;101979.91;4908154;29;20495;-73
2021/08/27 05:15:01;;;;;;;0.85;0.40;;;;;;;21.87;53.59;101964.97;4956943;29;20114;-72
2021/08/27 05:17:27;;;;;;;0.80;0.50;;;;;;;21.89;53.92;101971.09;4957029;29;20458;-74
2021/08/27 05:19:52;;;;;;;0.50;0.20;;;;;;;21.89;53.82;101974.63;4923968;29;20035;-73
2021/08/27 05:22:18;;;;;;;0.50;0.30;;;;;;;21.92;53.66;101974.63;4924008;29;20042;-74
2021/08/27 05:24:44;;;;;;;0.80;0.40;;;;;;;21.87;53.91;101970.22;4924531;29;20483;-75
2021/08/27 05:27:09;;;;;;;0.95;0.40;;;;;;;21.85;53.90;101966.72;4939847;29;20027;-73
2021/08/27 05:29:35;;;;;;;0.77;0.50;;;;;;;21.90;53.93;101978.13;4907754;29;20501;-74
2021/08/27 05:32:00;;;;;;;0.75;0.52;;;;;;;21.86;53.83;101966.72;4924287;29;20031;-74
2021/08/27 05:34:26;;;;;;;0.75;0.47;;;;;;;21.89;53.74;101974.63;4939559;29;20035;-73
2021/08/27 05:36:51;;;;;;;0.98;0.45;;;;;;;21.93;53.28;101976.38;4956612;29;20104;-73
2021/08/27 05:39:16;;;;;;;0.63;0.35;;;;;;;21.87;53.50;101975.50;4923243;29;20062;-72
2021/08/27 05:41:42;;;;;;;0.63;0.40;;;;;;;21.92;53.52;101986.91;4923474;29;20031;-73
2021/08/27 05:44:08;;;;;;;0.45;0.38;;;;;;;21.85;53.94;101972.84;4923483;29;20027;-73
2021/08/27 05:46:33;;;;;;;0.20;0.20;;;;;;;21.88;53.63;101975.50;4956217;29;20087;-73
2021/08/27 05:48:59;;;;;;;0.70;0.40;;;;;;;21.91;53.67;101991.31;4941159;29;20107;-77
2021/08/27 05:51:24;;;;;;;0.60;0.40;;;;;;;21.91;53.77;101983.41;4963107;29;20394;-78
2021/08/27 05:53:50;;;;;;;0.70;0.40;;;;;;;21.94;53.70;101990.44;4929608;29;20046;-78
2021/08/27 05:56:15;;;;;;;0.68;0.38;;;;;;;21.95;53.71;102000.06;4930586;29;20107;-76
2021/08/27 05:58:40;;;;;;;0.47;0.30;;;;;;;21.91;53.91;101991.31;4929849;29;20027;-76
2021/08/27 06:01:06;;;;;;;1.67;0.40;;;;;;;21.93;53.66;101992.19;4962898;29;20054;-75
2021/08/27 06:03:31;;;;;;;0.88;0.45;;;;;;;21.90;53.66;101986.03;4914830;29;20065;-75
2021/08/27 06:05:57;;;;;;;0.90;0.60;;;;;;;21.87;53.75;101983.41;4946114;29;20462;-75
2021/08/27 06:08:23;;;;;;;0.60;0.30;;;;;;;21.92;53.29;101987.78;4944821;29;20110;-75
2021/08/27 06:10:48;;;;;;;0.73;0.40;;;;;;;21.98;53.61;101993.03;4930260;29;20589;-75
2021/08/27 06:13:14;;;;;;;0.52;0.38;;;;;;;22.03;53.46;101998.34;4931332;29;20035;-75
2021/08/27 06:15:43;;;;;;;0.80;0.40;;;;;;;22.01;53.46;102000.97;4949294;29;20090;-75
2021/08/27 06:18:09;;;;;;;0.63;0.50;;;;;;;22.06;53.42;101999.22;4947564;29;20389;-75
2021/08/27 06:20:37;;;;;;;0.82;0.40;;;;;;;22.13;53.36;102004.47;4916410;29;20060;-75
2021/08/27 06:23:02;;;;;;;1.77;0.30;;;;;;;22.10;53.27;101993.06;4918648;29;20088;-77
2021/08/27 06:25:28;;;;;;;0.30;0.30;;;;;;;22.19;53.23;102007.09;4931309;29;20109;-75
2021/08/27 06:27:53;;;;;;;1.10;0.50;;;;;;;22.19;53.29;102008.00;4946483;29;20110;-75
2021/08/27 06:30:19;;;;;;;0.93;0.30;;;;;;;22.18;53.29;102002.72;4930518;29;20049;-75
2021/08/27 06:32:47;;;;;;;1.83;0.50;;;;;;;22.26;53.13;102007.06;4964253;29;20099;-75
2021/08/27 06:35:12;;;;;;;0.45;0.32;;;;;;;22.25;53.14;102007.06;4965925;29;20035;-75
2021/08/27 06:40:22;;;;;;;0.57;0.57;;;;;;;22.31;53.06;101999.19;4962138;29;20057;-75
2021/08/27 06:42:47;;;;;;;0.50;0.50;;;;;;;22.37;53.04;102014.94;4927726;29;20490;-75
2021/08/27 06:45:13;;;;;;;0.45;0.30;;;;;;;22.35;53.05;102004.41;4912160;29;20477;-74
2021/08/27 06:47:38;;;;;;;0.57;0.32;;;;;;;22.38;52.92;102000.91;4928259;29;20035;-75
2021/08/27 06:50:04;;;;;;;1.25;0.65;;;;;;;22.42;52.94;102007.91;4961112;29;20027;-75
2021/08/27 06:52:31;;;;;;;0.70;0.50;;;;;;;22.47;52.93;102006.13;4944225;29;20091;-75
2021/08/27 06:54:59;;;;;;;0.57;0.45;;;;;;;22.44;52.84;101995.63;4943178;29;19914;-75
2021/08/27 06:57:24;;;;;;;1.17;0.52;;;;;;;22.46;52.82;101999.97;4944080;29;20434;-75
2021/08/27 06:59:51;;;;;;;0.95;0.68;;;;;;;22.51;52.79;102005.25;4943201;29;20094;-75
2021/08/27 07:02:16;;;;;;;0.30;0.30;;;;;;;22.56;52.74;102010.53;4927244;29;20043;-75
2021/08/27 07:04:42;;;;;;;0.30;0.30;;;;;;;22.51;52.83;102009.66;4926855;29;20090;-74
2021/08/27 07:07:07;;;;;;;1.25;1.05;;;;;;;22.53;52.89;102010.53;4959047;29;20023;-74
2021/08/27 07:09:33;;;;;;;0.63;0.40;;;;;;;22.54;52.79;102007.00;4927239;29;19918;-76
2021/08/27 07:11:58;;;;;;;1.05;0.50;;;;;;;22.54;52.88;102009.63;4944286;29;20066;-75
2021/08/27 07:14:24;;;;;;;1.15;0.30;;;;;;;22.56;53.06;102011.41;4927541;29;20435;-74
2021/08/27 07:16:49;;;;;;;0.82;0.65;;;;;;;22.49;52.92;102007.00;4927434;29;20082;-74
2021/08/27 07:19:14;;;;;;;0.63;0.43;;;;;;;22.44;52.93;102016.72;4927705;29;20035;-75
2021/08/27 07:21:40;;;;;;;1.27;0.50;;;;;;;22.44;53.18;102021.97;4928114;29;20031;-74
2021/08/27 07:24:05;;;;;;;0.75;0.50;;;;;;;22.36;53.25;102011.44;4944137;29;20087;-74
2021/08/27 07:26:30;;;;;;;1.20;0.60;;;;;;;22.36;53.10;102029.88;4927189;29;20035;-74
2021/08/27 07:28:56;;;;;;;1.63;0.77;;;;;;;22.34;53.20;102025.50;4960295;29;20028;-75
2021/08/27 07:31:22;;;;;;;0.80;0.52;;;;;;;22.28;53.35;102022.88;4911558;29;20060;-75
2021/08/27 07:33:49;;;;;;;0.30;0.30;;;;;;;22.37;53.63;102031.66;4942593;29;20031;-74
2021/08/27 07:36:14;;;;;;;0.95;0.40;;;;;;;22.33;53.26;102021.97;4927140;29;20031;-75
2021/08/27 07:38:39;;;;;;;0.80;0.50;;;;;;;22.28;53.45;102020.25;4926998;29;20174;-75
2021/08/27 07:41:05;;;;;;;0.85;0.50;;;;;;;22.29;53.24;102029.91;4910876;29;20023;-75
2021/08/27 07:43:30;;;;;;;0.98;0.50;;;;;;;22.29;53.54;102037.81;4942657;29;20039;-74
2021/08/27 07:45:59;;;;;;;0.88;0.50;;;;;;;22.35;53.37;102043.06;4926429;29;20035;-74
2021/08/27 07:48:25;;;;;;;1.05;0.65;;;;;;;22.37;53.26;102055.38;4927464;29;20038;-75
2021/08/27 07:50:51;;;;;;;1.08;0.40;;;;;;;22.38;52.95;102043.94;4962793;29;20043;-75
2021/08/27 07:53:16;;;;;;;0.68;0.60;;;;;;;22.42;52.89;102042.19;4963011;29;20099;-75
2021/08/27 07:55:42;;;;;;;1.23;0.60;;;;;;;22.48;52.84;102052.69;4945470;29;20027;-75
2021/08/27 07:58:07;;;;;;;0.73;0.57;;;;;;;22.44;53.06;102041.31;4931164;29;20035;-79
2021/08/27 08:00:33;;;;;;;0.75;0.57;;;;;;;22.54;52.86;102043.91;4918216;29;20089;-78
2021/08/27 08:02:58;;;;;;;1.13;0.73;;;;;;;22.51;52.85;102039.50;4933042;29;20031;-75
2021/08/27 08:05:24;;;;;;;0.77;0.50;;;;;;;22.51;52.77;102036.88;4933008;29;20035;-75
2021/08/27 08:07:49;;;;;;;1.10;0.55;;;;;;;22.45;53.14;102034.28;4948428;29;20023;-75
2021/08/27 08:10:15;;;;;;;1.33;1.00;;;;;;;22.45;52.95;102045.69;4916388;29;20059;-75
2021/08/27 08:12:40;;;;;;;0.65;0.43;;;;;;;22.42;53.25;102043.06;4933153;29;20042;-75
2021/08/27 08:15:06;;;;;;;1.50;0.68;;;;;;;22.40;53.24;102047.47;4948846;29;20058;-74
2021/08/27 08:17:32;;;;;;;1.52;0.93;;;;;;;22.38;53.18;102043.06;4932530;29;20142;-74
2021/08/27 08:19:57;;;;;;;1.55;0.60;;;;;;;22.35;53.24;102053.59;4947023;28;20490;-76
2021/08/27 08:22:23;;;;;;;1.25;0.55;;;;;;;22.29;53.24;102041.34;4948515;29;20035;-76
2021/08/27 08:24:49;;;;;;;0.77;0.50;;;;;;;22.31;53.48;102042.22;4949730;29;20114;-75
2021/08/27 08:27:15;;;;;;;1.67;1.48;;;;;;;22.33;53.25;102039.59;4947270;29;20031;-76
2021/08/27 08:29:40;;;;;;;1.02;0.50;;;;;;;22.30;53.14;102037.81;4964547;29;20059;-75
2021/08/27 08:32:08;;;;;;;0.52;0.40;;;;;;;22.28;53.35;102025.53;4946753;29;20401;-75
2021/08/27 08:34:33;;;;;;;1.13;0.60;;;;;;;22.45;53.07;102043.06;4946565;29;20106;-74
2021/08/27 08:36:58;;;;;;;0.90;0.47;;;;;;;22.43;52.98;102036.91;4929787;29;20027;-75
2021/08/27 08:39:24;;;;;;;0.63;0.50;;;;;;;22.45;52.85;102044.81;4961800;29;20047;-74
2021/08/27 08:41:50;;;;;;;0.73;0.50;;;;;;;22.51;52.94;102043.91;4929032;29;20537;-76
2021/08/27 08:44:16;;;;;;;1.27;0.73;;;;;;;22.53;52.82;102042.16;4944426;29;20031;-75
2021/08/27 08:46:44;;;;;;;1.40;0.75;;;;;;;22.53;52.89;102047.44;4945141;29;20074;-75
2021/08/27 08:49:13;;;;;;;1.10;0.50;;;;;;;22.46;52.76;102033.38;4943626;29;20027;-75
2021/08/27 08:51:44;;;;;;;0.85;0.77;;;;;;;22.50;52.98;102053.56;4961063;29;20101;-75
2021/08/27 08:54:13;;;;;;;1.30;0.68;;;;;;;22.45;52.94;102047.47;4945226;29;20054;-75
2021/08/27 08:56:39;;;;;;;0.90;0.50;;;;;;;22.43;53.03;102051.84;4944312;29;20493;-75
2021/08/27 08:59:05;;;;;;;1.75;0.60;;;;;;;22.36;53.13;102039.56;4944135;29;20054;-75
2021/08/27 09:01:30;;;;;;;1.10;0.60;;;;;;;22.36;53.09;102048.34;4927517;29;20486;-75
2021/08/27 09:03:56;;;;;;;1.52;0.85;;;;;;;22.35;53.57;102048.34;4943398;29;20434;-75
2021/08/27 09:06:21;;;;;;;0.90;0.68;;;;;;;22.44;53.08;102045.69;4943732;29;20462;-74
2021/08/27 09:08:48;;;;;;;0.93;0.40;;;;;;;22.42;52.84;102035.16;4942935;29;20086;-74
2021/08/27 09:11:13;;;;;;;0.45;0.45;;;;;;;22.50;52.78;102043.03;4942446;29;20398;-74
2021/08/27 09:13:40;;;;;;;1.33;0.70;;;;;;;22.45;52.79;102029.88;4960455;29;20027;-75
2021/08/27 09:16:07;;;;;;;1.27;0.50;;;;;;;22.48;52.90;102030.72;4960071;29;20027;-75
2021/08/27 09:18:41;;;;;;;0.65;0.50;;;;;;;22.45;52.91;102042.19;4942944;29;20031;-74
2021/08/27 09:21:30;;;;;;;1.33;0.70;;;;;;;22.46;52.97;102046.53;4943840;29;20125;-74
2021/08/27 09:24:15;;;;;;;0.47;0.38;;;;;;;22.48;52.98;102051.81;4958571;29;20473;-76
2021/08/27 09:26:43;;;;;;;0.88;0.55;;;;;;;22.47;52.83;102045.66;4940406;29;20039;-75
2021/08/27 09:29:09;;;;;;;0.75;0.47;;;;;;;22.47;52.90;102045.66;4925873;29;20059;-74
2021/08/27 09:31:37;;;;;;;1.02;0.95;;;;;;;22.40;52.98;102047.47;4940779;29;20023;-76
2021/08/27 09:34:03;;;;;;;1.10;0.80;;;;;;;22.44;53.00;102053.63;4941197;29;20027;-75
2021/08/27 09:36:29;;;;;;;0.93;0.60;;;;;;;22.41;53.09;102051.84;4957767;29;20027;-75
2021/08/27 09:39:01;;;;;;;0.70;0.50;;;;;;;22.45;52.88;102060.63;4921858;29;20070;-75
2021/08/27 09:41:26;;;;;;;1.00;0.50;;;;;;;22.42;53.16;102047.47;4938074;29;20035;-75
2021/08/27 09:43:56;;;;;;;0.95;0.40;;;;;;;22.40;52.90;102050.09;4941198;29;20035;-75
2021/08/27 09:46:45;;;;;;;0.50;0.40;;;;;;;22.40;53.05;102042.19;4942964;29;20031;-75
2021/08/27 09:49:33;;;;;;;0.93;0.75;;;;;;;22.40;53.08;102050.09;4943413;29;20027;-76
2021/08/27 09:52:00;;;;;;;0.52;0.45;;;;;;;22.41;52.88;102048.34;4943444;29;20034;-75
2021/08/27 09:54:46;;;;;;;0.93;0.70;;;;;;;22.41;52.90;102051.84;4943221;29;20394;-78
2021/08/27 09:57:12;;;;;;;2.20;0.55;;;;;;;22.48;52.95;102049.19;4927874;29;20386;-75
2021/08/27 09:59:47;;;;;;;1.20;0.70;;;;;;;22.41;52.98;102035.16;4942203;29;20027;-75
2021/08/27 10:02:15;;;;;;;0.70;0.40;;;;;;;22.45;52.83;102050.97;4943206;29;20086;-75
2021/08/27 10:04:57;;;;;;;0.93;0.70;;;;;;;22.45;52.93;102048.34;4924753;29;20024;-75
2021/08/27 10:07:32;;;;;;;0.52;0.43;;;;;;;22.45;52.89;102050.09;4942427;29;20032;-75
2021/08/27 10:10:00;;;;;;;0.50;0.40;;;;;;;22.45;52.89;102036.91;4942048;29;20032;-75
2021/08/27 10:12:27;;;;;;;0.65;0.45;;;;;;;22.44;52.98;102027.25;4924627;29;20036;-75
2021/08/27 10:14:53;;;;;;;1.40;0.60;;;;;;;22.44;52.87;102032.53;4942066;29;20035;-75
2021/08/27 10:17:19;;;;;;;2.28;0.75;;;;;;;22.48;52.78;102030.72;4925816;29;20019;-74
2021/08/27 10:19:45;;;;;;;1.60;0.52;;;;;;;22.40;52.72;102020.22;4940391;29;20038;-75
2021/08/27 10:22:10;;;;;;;1.33;0.80;;;;;;;22.45;52.55;102029.88;4924486;29;20079;-75
2021/08/27 10:24:36;;;;;;;1.13;0.73;;;;;;;22.50;52.89;102043.03;4941637;29;20099;-75
2021/08/27 10:27:06;;;;;;;1.35;0.70;;;;;;;22.45;52.81;102035.16;4941652;29;20027;-75
2021/08/27 10:29:31;;;;;;;0.82;0.50;;;;;;;22.47;52.79;102037.75;4941524;29;20479;-75
2021/08/27 10:31:57;;;;;;;1.33;0.70;;;;;;;22.46;52.85;102028.97;4923648;29;20054;-76
2021/08/27 10:34:43;;;;;;;1.35;1.02;;;;;;;22.42;52.87;102024.63;4940446;29;20032;-75
2021/08/27 10:37:28;;;;;;;1.08;0.65;;;;;;;22.48;52.81;102022.81;4941825;29;20027;-75
2021/08/27 10:39:54;;;;;;;1.38;0.85;;;;;;;22.39;52.86;102024.63;4959488;29;20062;-75
2021/08/27 10:42:46;;;;;;;2.05;0.77;;;;;;;22.49;52.81;102024.59;4926947;29;20043;-76
2021/08/27 10:45:11;;;;;;;1.77;0.80;;;;;;;22.46;52.72;102036.00;4958651;29;20057;-75
2021/08/27 10:48:06;;;;;;;1.25;0.70;;;;;;;22.48;52.86;102025.47;4941518;29;20063;-75
2021/08/27 10:50:31;;;;;;;0.85;0.63;;;;;;;22.46;52.67;102021.06;4943810;29;20027;-75
2021/08/27 10:53:19;;;;;;;1.70;0.80;;;;;;;22.46;52.63;102026.34;4927788;29;20401;-75
2021/08/27 10:55:45;;;;;;;1.35;0.73;;;;;;;22.43;52.75;102023.75;4959528;29;20019;-76
2021/08/27 10:58:13;;;;;;;2.03;0.90;;;;;;;22.47;52.81;102045.66;4941891;29;20031;-75
2021/08/27 11:00:50;;;;;;;1.48;0.88;;;;;;;22.35;52.68;102007.03;4942011;29;20031;-75
2021/08/27 11:03:15;;;;;;;1.88;0.90;;;;;;;22.48;52.52;102017.56;4942107;29;20034;-75
2021/08/27 11:05:42;;;;;;;1.65;0.98;;;;;;;22.51;52.66;102036.00;4926676;29;20039;-84
2021/08/27 11:13:43;;;;;;;1.30;0.70;;;;;;;22.51;52.56;102021.06;5615037;23;20107;-74
2021/08/27 11:16:21;;;;;;;1.30;0.70;;;;;;;22.49;52.70;102032.50;4922206;29;20035;-75
2021/08/27 11:18:48;;;;;;;1.38;0.70;;;;;;;22.45;52.65;102029.88;4922535;29;20178;-75
2021/08/27 11:21:37;;;;;;;1.05;0.60;;;;;;;22.41;52.82;102025.50;4923117;29;20035;-75
2021/08/27 11:24:19;;;;;;;1.27;0.80;;;;;;;22.45;52.89;102039.56;4921781;29;20047;-75
2021/08/27 11:26:57;;;;;;;1.23;0.60;;;;;;;22.43;52.89;102044.81;4939677;29;20113;-75
2021/08/27 11:29:27;;;;;;;1.27;0.70;;;;;;;22.41;52.77;102049.22;4922408;29;20032;-75
2021/08/27 11:31:54;;;;;;;1.53;0.97;;;;;;;22.38;52.96;102043.94;4906896;29;20036;-75
2021/08/27 11:34:24;;;;;;;1.50;1.02;;;;;;;22.35;52.87;102038.66;4922109;29;20564;-74
2021/08/27 11:36:50;;;;;;;1.00;0.60;;;;;;;22.39;52.84;102044.81;4921566;29;20032;-75
2021/08/27 11:39:16;;;;;;;1.47;0.77;;;;;;;22.39;52.99;102039.56;4938098;29;20473;-75